sensor_id;sensor_type;location;lat;lon;timestamp;temperature;humidity
70246;SHT30;57637;49.272;8.590;2023-07-31T00:00:06;17.85;70.90
70246;SHT30;57637;49.272;8.590;2023-07-31T00:02:34;17.82;70.89
70246;SHT30;57637;49.272;8.590;2023-07-31T00:04:59;17.81;70.71
70246;SHT30;57637;49.272;8.590;2023-07-31T00:07:25;17.81;70.77
70246;SHT30;57637;49.272;8.590;2023-07-31T00:09:50;17.78;70.83
70246;SHT30;57637;49.272;8.590;2023-07-31T00:12:16;17.79;70.79
70246;SHT30;57637;49.272;8.590;2023-07-31T00:14:41;17.78;70.91
70246;SHT30;57637;49.272;8.590;2023-07-31T00:17:06;17.78;71.02
70246;SHT30;57637;49.272;8.590;2023-07-31T00:19:32;17.74;71.18
70246;SHT30;57637;49.272;8.590;2023-07-31T00:21:57;17.72;71.27
70246;SHT30;57637;49.272;8.590;2023-07-31T00:24:23;17.71;71.14
70246;SHT30;57637;49.272;8.590;2023-07-31T00:26:48;17.66;71.33
70246;SHT30;57637;49.272;8.590;2023-07-31T00:29:13;17.66;71.39
70246;SHT30;57637;49.272;8.590;2023-07-31T00:31:39;17.65;71.41
70246;SHT30;57637;49.272;8.590;2023-07-31T00:34:04;17.62;71.41
70246;SHT30;57637;49.272;8.590;2023-07-31T00:36:29;17.62;71.53
70246;SHT30;57637;49.272;8.590;2023-07-31T00:38:55;17.62;71.63
70246;SHT30;57637;49.272;8.590;2023-07-31T00:41:20;17.62;71.74
70246;SHT30;57637;49.272;8.590;2023-07-31T00:43:46;17.61;71.89
70246;SHT30;57637;49.272;8.590;2023-07-31T00:46:11;17.59;71.97
70246;SHT30;57637;49.272;8.590;2023-07-31T00:48:36;17.59;72.06
70246;SHT30;57637;49.272;8.590;2023-07-31T00:51:02;17.61;72.04
70246;SHT30;57637;49.272;8.590;2023-07-31T00:53:28;17.64;71.94
70246;SHT30;57637;49.272;8.590;2023-07-31T00:55:53;17.64;71.73
70246;SHT30;57637;49.272;8.590;2023-07-31T00:58:19;17.65;71.57
70246;SHT30;57637;49.272;8.590;2023-07-31T01:00:44;17.66;71.48
70246;SHT30;57637;49.272;8.590;2023-07-31T01:03:10;17.68;71.11
70246;SHT30;57637;49.272;8.590;2023-07-31T01:05:39;17.68;70.97
70246;SHT30;57637;49.272;8.590;2023-07-31T01:08:23;17.72;70.93
70246;SHT30;57637;49.272;8.590;2023-07-31T01:10:56;17.75;70.96
70246;SHT30;57637;49.272;8.590;2023-07-31T01:13:27;17.74;71.03
70246;SHT30;57637;49.272;8.590;2023-07-31T01:15:53;17.74;70.78
70246;SHT30;57637;49.272;8.590;2023-07-31T01:24:20;17.75;70.51
70246;SHT30;57637;49.272;8.590;2023-07-31T01:30:37;17.76;70.61
70246;SHT30;57637;49.272;8.590;2023-07-31T01:33:08;17.75;70.60
70246;SHT30;57637;49.272;8.590;2023-07-31T01:35:34;17.74;70.69
70246;SHT30;57637;49.272;8.590;2023-07-31T01:38:02;17.72;70.57
70246;SHT30;57637;49.272;8.590;2023-07-31T01:40:27;17.68;70.71
70246;SHT30;57637;49.272;8.590;2023-07-31T01:42:53;17.65;70.95
70246;SHT30;57637;49.272;8.590;2023-07-31T01:45:18;17.65;71.03
70246;SHT30;57637;49.272;8.590;2023-07-31T01:47:44;17.68;71.23
70246;SHT30;57637;49.272;8.590;2023-07-31T01:50:09;17.65;71.24
70246;SHT30;57637;49.272;8.590;2023-07-31T01:52:34;17.69;71.32
70246;SHT30;57637;49.272;8.590;2023-07-31T01:55:00;17.66;71.24
70246;SHT30;57637;49.272;8.590;2023-07-31T01:57:25;17.66;71.34
70246;SHT30;57637;49.272;8.590;2023-07-31T01:59:51;17.68;71.51
70246;SHT30;57637;49.272;8.590;2023-07-31T02:02:18;17.65;71.60
70246;SHT30;57637;49.272;8.590;2023-07-31T02:04:44;17.64;71.90
70246;SHT30;57637;49.272;8.590;2023-07-31T02:07:09;17.62;71.98
70246;SHT30;57637;49.272;8.590;2023-07-31T02:09:35;17.59;72.23
70246;SHT30;57637;49.272;8.590;2023-07-31T02:12:00;17.58;72.34
70246;SHT30;57637;49.272;8.590;2023-07-31T02:14:25;17.55;72.49
70246;SHT30;57637;49.272;8.590;2023-07-31T02:16:51;17.58;72.58
70246;SHT30;57637;49.272;8.590;2023-07-31T02:19:16;17.56;72.77
70246;SHT30;57637;49.272;8.590;2023-07-31T02:21:41;17.54;72.86
70246;SHT30;57637;49.272;8.590;2023-07-31T02:24:07;17.54;73.05
70246;SHT30;57637;49.272;8.590;2023-07-31T02:26:32;17.54;72.86
70246;SHT30;57637;49.272;8.590;2023-07-31T02:28:57;17.52;72.95
70246;SHT30;57637;49.272;8.590;2023-07-31T02:31:23;17.51;73.14
70246;SHT30;57637;49.272;8.590;2023-07-31T02:33:48;17.54;73.20
70246;SHT30;57637;49.272;8.590;2023-07-31T02:36:13;17.52;73.29
70246;SHT30;57637;49.272;8.590;2023-07-31T02:38:39;17.48;73.46
70246;SHT30;57637;49.272;8.590;2023-07-31T02:41:05;17.45;73.88
70246;SHT30;57637;49.272;8.590;2023-07-31T02:43:30;17.45;73.71
70246;SHT30;57637;49.272;8.590;2023-07-31T02:45:56;17.44;73.73
70246;SHT30;57637;49.272;8.590;2023-07-31T02:48:21;17.42;73.89
70246;SHT30;57637;49.272;8.590;2023-07-31T02:50:47;17.39;73.81
70246;SHT30;57637;49.272;8.590;2023-07-31T02:53:12;17.35;74.16
70246;SHT30;57637;49.272;8.590;2023-07-31T02:55:38;17.32;74.10
70246;SHT30;57637;49.272;8.590;2023-07-31T02:58:03;17.35;74.09
70246;SHT30;57637;49.272;8.590;2023-07-31T03:00:29;17.28;74.18
70246;SHT30;57637;49.272;8.590;2023-07-31T03:02:54;17.23;74.63
70246;SHT30;57637;49.272;8.590;2023-07-31T03:05:20;17.20;74.66
70246;SHT30;57637;49.272;8.590;2023-07-31T03:07:45;17.13;75.25
70246;SHT30;57637;49.272;8.590;2023-07-31T03:10:11;17.07;75.13
70246;SHT30;57637;49.272;8.590;2023-07-31T03:12:36;17.07;74.98
70246;SHT30;57637;49.272;8.590;2023-07-31T03:15:01;16.95;75.47
70246;SHT30;57637;49.272;8.590;2023-07-31T03:17:27;16.95;75.34
70246;SHT30;57637;49.272;8.590;2023-07-31T03:19:52;16.87;75.67
70246;SHT30;57637;49.272;8.590;2023-07-31T03:22:17;16.84;75.50
70246;SHT30;57637;49.272;8.590;2023-07-31T03:24:43;16.80;75.70
70246;SHT30;57637;49.272;8.590;2023-07-31T03:27:08;16.79;75.76
70246;SHT30;57637;49.272;8.590;2023-07-31T03:29:33;16.76;75.83
70246;SHT30;57637;49.272;8.590;2023-07-31T03:31:59;16.73;76.13
70246;SHT30;57637;49.272;8.590;2023-07-31T03:34:24;16.70;76.19
70246;SHT30;57637;49.272;8.590;2023-07-31T03:36:49;16.70;76.22
70246;SHT30;57637;49.272;8.590;2023-07-31T03:39:15;16.70;76.50
70246;SHT30;57637;49.272;8.590;2023-07-31T03:41:40;16.69;76.33
70246;SHT30;57637;49.272;8.590;2023-07-31T03:44:06;16.64;76.26
70246;SHT30;57637;49.272;8.590;2023-07-31T03:46:31;16.66;76.18
70246;SHT30;57637;49.272;8.590;2023-07-31T03:48:56;16.63;76.20
70246;SHT30;57637;49.272;8.590;2023-07-31T03:51:22;16.62;76.14
70246;SHT30;57637;49.272;8.590;2023-07-31T03:53:47;16.60;76.19
70246;SHT30;57637;49.272;8.590;2023-07-31T03:56:13;16.60;76.29
70246;SHT30;57637;49.272;8.590;2023-07-31T03:58:38;16.62;76.16
70246;SHT30;57637;49.272;8.590;2023-07-31T04:01:04;16.64;76.15
70246;SHT30;57637;49.272;8.590;2023-07-31T04:03:29;16.67;75.99
70246;SHT30;57637;49.272;8.590;2023-07-31T04:05:55;16.69;76.07
70246;SHT30;57637;49.272;8.590;2023-07-31T04:08:21;16.72;75.98
70246;SHT30;57637;49.272;8.590;2023-07-31T04:10:47;16.76;75.96
70246;SHT30;57637;49.272;8.590;2023-07-31T04:13:12;16.77;75.82
70246;SHT30;57637;49.272;8.590;2023-07-31T04:15:38;16.81;75.85
70246;SHT30;57637;49.272;8.590;2023-07-31T04:18:04;16.86;75.51
70246;SHT30;57637;49.272;8.590;2023-07-31T04:20:29;16.87;75.30
70246;SHT30;57637;49.272;8.590;2023-07-31T04:22:55;16.91;75.26
70246;SHT30;57637;49.272;8.590;2023-07-31T04:25:20;16.94;75.22
70246;SHT30;57637;49.272;8.590;2023-07-31T04:27:45;16.93;75.44
70246;SHT30;57637;49.272;8.590;2023-07-31T04:30:11;16.99;75.35
70246;SHT30;57637;49.272;8.590;2023-07-31T04:32:36;17.00;75.16
70246;SHT30;57637;49.272;8.590;2023-07-31T04:35:02;17.04;75.23
70246;SHT30;57637;49.272;8.590;2023-07-31T04:37:27;17.04;75.62
70246;SHT30;57637;49.272;8.590;2023-07-31T04:39:53;17.10;75.57
70246;SHT30;57637;49.272;8.590;2023-07-31T04:42:18;17.15;75.29
70246;SHT30;57637;49.272;8.590;2023-07-31T04:44:43;17.18;75.15
70246;SHT30;57637;49.272;8.590;2023-07-31T04:47:09;17.23;74.95
70246;SHT30;57637;49.272;8.590;2023-07-31T04:49:34;17.28;74.71
70246;SHT30;57637;49.272;8.590;2023-07-31T04:52:00;17.32;74.62
70246;SHT30;57637;49.272;8.590;2023-07-31T04:54:25;17.38;74.38
70246;SHT30;57637;49.272;8.590;2023-07-31T04:56:50;17.44;74.20
70246;SHT30;57637;49.272;8.590;2023-07-31T04:59:17;17.45;74.03
70246;SHT30;57637;49.272;8.590;2023-07-31T05:01:42;17.54;73.90
70246;SHT30;57637;49.272;8.590;2023-07-31T05:04:10;17.58;73.76
70246;SHT30;57637;49.272;8.590;2023-07-31T05:06:37;17.66;73.71
70246;SHT30;57637;49.272;8.590;2023-07-31T05:09:02;17.69;73.48
70246;SHT30;57637;49.272;8.590;2023-07-31T05:11:28;17.71;73.41
70246;SHT30;57637;49.272;8.590;2023-07-31T05:13:53;17.69;73.43
70246;SHT30;57637;49.272;8.590;2023-07-31T05:16:18;17.76;73.43
70246;SHT30;57637;49.272;8.590;2023-07-31T05:18:44;17.78;73.50
70246;SHT30;57637;49.272;8.590;2023-07-31T05:21:09;17.86;73.40
70246;SHT30;57637;49.272;8.590;2023-07-31T05:23:34;17.89;73.59
70246;SHT30;57637;49.272;8.590;2023-07-31T05:26:04;17.97;72.92
70246;SHT30;57637;49.272;8.590;2023-07-31T05:28:29;18.02;72.89
70246;SHT30;57637;49.272;8.590;2023-07-31T05:30:59;18.05;72.84
70246;SHT30;57637;49.272;8.590;2023-07-31T05:33:28;18.00;73.06
70246;SHT30;57637;49.272;8.590;2023-07-31T05:35:53;18.10;72.72
70246;SHT30;57637;49.272;8.590;2023-07-31T05:38:18;18.14;72.59
70246;SHT30;57637;49.272;8.590;2023-07-31T05:40:44;18.22;72.43
70246;SHT30;57637;49.272;8.590;2023-07-31T05:43:09;18.25;72.19
70246;SHT30;57637;49.272;8.590;2023-07-31T05:45:35;18.29;72.21
70246;SHT30;57637;49.272;8.590;2023-07-31T05:48:01;18.30;72.27
70246;SHT30;57637;49.272;8.590;2023-07-31T05:50:27;18.30;72.26
70246;SHT30;57637;49.272;8.590;2023-07-31T05:52:52;18.29;72.50
70246;SHT30;57637;49.272;8.590;2023-07-31T05:55:18;18.30;72.58
70246;SHT30;57637;49.272;8.590;2023-07-31T05:57:43;18.33;72.61
70246;SHT30;57637;49.272;8.590;2023-07-31T06:00:13;18.37;72.42
70246;SHT30;57637;49.272;8.590;2023-07-31T06:02:39;18.43;72.52
70246;SHT30;57637;49.272;8.590;2023-07-31T06:05:04;18.50;72.32
70246;SHT30;57637;49.272;8.590;2023-07-31T06:07:33;18.60;72.02
70246;SHT30;57637;49.272;8.590;2023-07-31T06:09:58;18.65;71.73
70246;SHT30;57637;49.272;8.590;2023-07-31T06:12:30;18.68;71.46
70246;SHT30;57637;49.272;8.590;2023-07-31T06:15:02;18.77;71.46
70246;SHT30;57637;49.272;8.590;2023-07-31T06:17:28;18.84;71.20
70246;SHT30;57637;49.272;8.590;2023-07-31T06:19:54;18.90;70.89
70246;SHT30;57637;49.272;8.590;2023-07-31T06:22:21;18.95;70.78
70246;SHT30;57637;49.272;8.590;2023-07-31T06:24:46;19.01;70.61
70246;SHT30;57637;49.272;8.590;2023-07-31T06:27:12;19.10;70.55
70246;SHT30;57637;49.272;8.590;2023-07-31T06:29:37;19.12;70.23
70246;SHT30;57637;49.272;8.590;2023-07-31T06:32:02;19.18;70.00
70246;SHT30;57637;49.272;8.590;2023-07-31T06:34:28;19.16;70.36
70246;SHT30;57637;49.272;8.590;2023-07-31T06:36:54;19.18;70.08
70246;SHT30;57637;49.272;8.590;2023-07-31T06:39:20;19.23;69.76
70246;SHT30;57637;49.272;8.590;2023-07-31T06:41:46;19.28;69.60
70246;SHT30;57637;49.272;8.590;2023-07-31T06:44:11;19.36;69.45
70246;SHT30;57637;49.272;8.590;2023-07-31T06:46:36;19.41;69.25
70246;SHT30;57637;49.272;8.590;2023-07-31T06:49:03;19.55;69.13
70246;SHT30;57637;49.272;8.590;2023-07-31T06:51:30;19.63;68.91
70246;SHT30;57637;49.272;8.590;2023-07-31T06:53:56;19.73;68.51
70246;SHT30;57637;49.272;8.590;2023-07-31T06:56:22;19.76;68.63
70246;SHT30;57637;49.272;8.590;2023-07-31T06:58:48;19.72;68.42
70246;SHT30;57637;49.272;8.590;2023-07-31T07:01:14;19.65;68.87
70246;SHT30;57637;49.272;8.590;2023-07-31T07:03:39;19.69;68.75
70246;SHT30;57637;49.272;8.590;2023-07-31T07:06:04;19.79;68.54
70246;SHT30;57637;49.272;8.590;2023-07-31T07:08:30;19.84;68.57
70246;SHT30;57637;49.272;8.590;2023-07-31T07:10:55;19.97;68.11
70246;SHT30;57637;49.272;8.590;2023-07-31T07:13:21;20.09;67.63
70246;SHT30;57637;49.272;8.590;2023-07-31T07:15:50;20.21;67.36
70246;SHT30;57637;49.272;8.590;2023-07-31T07:18:16;20.41;66.72
70246;SHT30;57637;49.272;8.590;2023-07-31T07:20:52;20.57;66.74
70246;SHT30;57637;49.272;8.590;2023-07-31T07:23:18;20.68;66.56
70246;SHT30;57637;49.272;8.590;2023-07-31T07:25:45;20.65;66.48
70246;SHT30;57637;49.272;8.590;2023-07-31T07:28:11;20.68;66.36
70246;SHT30;57637;49.272;8.590;2023-07-31T07:30:37;20.61;66.45
70246;SHT30;57637;49.272;8.590;2023-07-31T07:33:03;20.71;65.90
70246;SHT30;57637;49.272;8.590;2023-07-31T07:35:29;20.52;66.12
70246;SHT30;57637;49.272;8.590;2023-07-31T07:37:55;20.75;65.23
70246;SHT30;57637;49.272;8.590;2023-07-31T07:40:21;20.78;65.09
70246;SHT30;57637;49.272;8.590;2023-07-31T07:42:50;20.86;65.54
70246;SHT30;57637;49.272;8.590;2023-07-31T07:45:34;20.89;65.30
70246;SHT30;57637;49.272;8.590;2023-07-31T07:47:59;21.15;65.01
70246;SHT30;57637;49.272;8.590;2023-07-31T07:50:24;21.29;64.42
70246;SHT30;57637;49.272;8.590;2023-07-31T07:52:50;21.33;63.93
70246;SHT30;57637;49.272;8.590;2023-07-31T07:55:15;21.36;64.09
70246;SHT30;57637;49.272;8.590;2023-07-31T07:57:41;21.53;63.45
70246;SHT30;57637;49.272;8.590;2023-07-31T08:00:06;21.84;63.59
70246;SHT30;57637;49.272;8.590;2023-07-31T08:02:32;22.02;63.00
70246;SHT30;57637;49.272;8.590;2023-07-31T08:04:57;22.00;61.65
70246;SHT30;57637;49.272;8.590;2023-07-31T08:07:23;22.05;62.03
70246;SHT30;57637;49.272;8.590;2023-07-31T08:09:48;22.18;61.70
70246;SHT30;57637;49.272;8.590;2023-07-31T08:12:14;22.32;61.63
70246;SHT30;57637;49.272;8.590;2023-07-31T08:14:39;22.37;61.66
70246;SHT30;57637;49.272;8.590;2023-07-31T08:17:04;22.34;61.52
70246;SHT30;57637;49.272;8.590;2023-07-31T08:19:30;22.28;60.93
70246;SHT30;57637;49.272;8.590;2023-07-31T08:21:55;22.12;60.60
70246;SHT30;57637;49.272;8.590;2023-07-31T08:24:21;22.12;60.89
70246;SHT30;57637;49.272;8.590;2023-07-31T08:26:46;22.22;61.04
70246;SHT30;57637;49.272;8.590;2023-07-31T08:29:13;22.18;61.18
70246;SHT30;57637;49.272;8.590;2023-07-31T08:31:39;22.14;60.97
70246;SHT30;57637;49.272;8.590;2023-07-31T08:34:16;22.25;60.78
70246;SHT30;57637;49.272;8.590;2023-07-31T08:36:42;22.34;60.49
70246;SHT30;57637;49.272;8.590;2023-07-31T08:39:07;22.52;60.26
70246;SHT30;57637;49.272;8.590;2023-07-31T08:41:37;22.69;58.99
70246;SHT30;57637;49.272;8.590;2023-07-31T08:44:04;22.77;59.14
70246;SHT30;57637;49.272;8.590;2023-07-31T08:46:30;22.88;59.21
70246;SHT30;57637;49.272;8.590;2023-07-31T08:48:56;22.98;58.52
70246;SHT30;57637;49.272;8.590;2023-07-31T08:51:23;23.04;58.73
70246;SHT30;57637;49.272;8.590;2023-07-31T08:53:49;23.49;58.43
70246;SHT30;57637;49.272;8.590;2023-07-31T08:56:14;23.55;57.43
70246;SHT30;57637;49.272;8.590;2023-07-31T08:58:41;23.85;57.94
70246;SHT30;57637;49.272;8.590;2023-07-31T09:01:08;24.11;57.18
70246;SHT30;57637;49.272;8.590;2023-07-31T09:03:34;24.29;56.99
70246;SHT30;57637;49.272;8.590;2023-07-31T09:06:02;24.36;56.03
70246;SHT30;57637;49.272;8.590;2023-07-31T09:08:31;24.32;56.30
70246;SHT30;57637;49.272;8.590;2023-07-31T09:11:00;24.24;56.32
70246;SHT30;57637;49.272;8.590;2023-07-31T09:13:29;24.62;55.56
70246;SHT30;57637;49.272;8.590;2023-07-31T09:15:55;24.94;55.63
70246;SHT30;57637;49.272;8.590;2023-07-31T09:18:20;25.21;54.98
70246;SHT30;57637;49.272;8.590;2023-07-31T09:21:00;25.06;53.42
70246;SHT30;57637;49.272;8.590;2023-07-31T09:23:42;25.02;53.60
70246;SHT30;57637;49.272;8.590;2023-07-31T09:26:32;24.94;53.73
70246;SHT30;57637;49.272;8.590;2023-07-31T09:28:59;25.13;53.67
70246;SHT30;57637;49.272;8.590;2023-07-31T09:31:41;25.10;53.30
70246;SHT30;57637;49.272;8.590;2023-07-31T09:34:07;24.91;54.12
70246;SHT30;57637;49.272;8.590;2023-07-31T09:36:39;24.69;54.15
70246;SHT30;57637;49.272;8.590;2023-07-31T09:39:10;24.80;55.22
70246;SHT30;57637;49.272;8.590;2023-07-31T09:41:37;25.00;54.49
70246;SHT30;57637;49.272;8.590;2023-07-31T09:44:03;25.26;53.41
70246;SHT30;57637;49.272;8.590;2023-07-31T09:47:22;25.11;53.07
70246;SHT30;57637;49.272;8.590;2023-07-31T09:49:51;24.69;53.71
70246;SHT30;57637;49.272;8.590;2023-07-31T09:52:17;24.62;54.27
70246;SHT30;57637;49.272;8.590;2023-07-31T09:54:42;25.00;54.23
70246;SHT30;57637;49.272;8.590;2023-07-31T09:57:08;25.10;52.98
70246;SHT30;57637;49.272;8.590;2023-07-31T09:59:34;25.24;53.56
70246;SHT30;57637;49.272;8.590;2023-07-31T10:02:00;25.21;53.01
70246;SHT30;57637;49.272;8.590;2023-07-31T10:04:27;25.18;53.31
70246;SHT30;57637;49.272;8.590;2023-07-31T10:06:53;25.23;53.87
70246;SHT30;57637;49.272;8.590;2023-07-31T10:09:19;25.26;53.26
70246;SHT30;57637;49.272;8.590;2023-07-31T10:11:47;25.38;53.18
70246;SHT30;57637;49.272;8.590;2023-07-31T10:14:18;25.35;53.35
70246;SHT30;57637;49.272;8.590;2023-07-31T10:16:45;25.27;53.08
70246;SHT30;57637;49.272;8.590;2023-07-31T10:19:10;25.03;53.27
70246;SHT30;57637;49.272;8.590;2023-07-31T10:21:36;25.00;53.58
70246;SHT30;57637;49.272;8.590;2023-07-31T10:24:03;25.06;53.46
70246;SHT30;57637;49.272;8.590;2023-07-31T10:26:29;24.75;53.35
70246;SHT30;57637;49.272;8.590;2023-07-31T10:28:58;25.03;53.62
70246;SHT30;57637;49.272;8.590;2023-07-31T10:31:24;25.37;53.98
70246;SHT30;57637;49.272;8.590;2023-07-31T10:33:51;25.52;53.04
70246;SHT30;57637;49.272;8.590;2023-07-31T10:36:20;25.17;53.09
70246;SHT30;57637;49.272;8.590;2023-07-31T10:38:49;25.34;53.46
70246;SHT30;57637;49.272;8.590;2023-07-31T10:41:15;25.40;52.71
70246;SHT30;57637;49.272;8.590;2023-07-31T10:43:41;25.41;53.31
70246;SHT30;57637;49.272;8.590;2023-07-31T10:46:07;25.96;52.82
70246;SHT30;57637;49.272;8.590;2023-07-31T10:48:34;26.13;51.67
70246;SHT30;57637;49.272;8.590;2023-07-31T10:51:02;26.25;51.30
70246;SHT30;57637;49.272;8.590;2023-07-31T10:53:37;26.09;50.33
70246;SHT30;57637;49.272;8.590;2023-07-31T10:56:05;25.71;51.93
70246;SHT30;57637;49.272;8.590;2023-07-31T10:58:32;25.31;52.31
70246;SHT30;57637;49.272;8.590;2023-07-31T11:01:00;25.14;52.70
70246;SHT30;57637;49.272;8.590;2023-07-31T11:03:56;24.82;53.33
70246;SHT30;57637;49.272;8.590;2023-07-31T11:06:21;24.77;53.60
70246;SHT30;57637;49.272;8.590;2023-07-31T11:08:47;24.83;54.32
70246;SHT30;57637;49.272;8.590;2023-07-31T11:11:16;25.14;53.74
70246;SHT30;57637;49.272;8.590;2023-07-31T11:13:51;25.38;53.62
70246;SHT30;57637;49.272;8.590;2023-07-31T11:16:18;25.58;52.48
70246;SHT30;57637;49.272;8.590;2023-07-31T11:18:46;25.40;52.43
70246;SHT30;57637;49.272;8.590;2023-07-31T11:21:17;25.48;52.67
70246;SHT30;57637;49.272;8.590;2023-07-31T11:23:56;25.48;52.54
70246;SHT30;57637;49.272;8.590;2023-07-31T11:26:23;25.67;52.15
70246;SHT30;57637;49.272;8.590;2023-07-31T11:28:49;25.72;52.24
70246;SHT30;57637;49.272;8.590;2023-07-31T11:31:16;25.62;52.57
70246;SHT30;57637;49.272;8.590;2023-07-31T11:33:42;25.51;52.53
70246;SHT30;57637;49.272;8.590;2023-07-31T11:36:15;25.67;52.67
70246;SHT30;57637;49.272;8.590;2023-07-31T11:38:42;25.74;52.62
70246;SHT30;57637;49.272;8.590;2023-07-31T11:41:07;25.54;52.64
70246;SHT30;57637;49.272;8.590;2023-07-31T11:43:33;25.55;52.60
70246;SHT30;57637;49.272;8.590;2023-07-31T11:46:17;25.79;52.83
70246;SHT30;57637;49.272;8.590;2023-07-31T11:48:44;25.69;53.13
70246;SHT30;57637;49.272;8.590;2023-07-31T11:51:10;25.69;52.79
70246;SHT30;57637;49.272;8.590;2023-07-31T11:53:41;25.77;52.89
70246;SHT30;57637;49.272;8.590;2023-07-31T11:56:17;25.57;52.99
70246;SHT30;57637;49.272;8.590;2023-07-31T11:58:49;25.62;52.91
70246;SHT30;57637;49.272;8.590;2023-07-31T12:01:18;25.85;52.69
70246;SHT30;57637;49.272;8.590;2023-07-31T12:03:46;25.92;52.49
70246;SHT30;57637;49.272;8.590;2023-07-31T12:06:12;25.74;53.33
70246;SHT30;57637;49.272;8.590;2023-07-31T12:08:38;25.69;53.27
70246;SHT30;57637;49.272;8.590;2023-07-31T12:11:04;25.47;53.50
70246;SHT30;57637;49.272;8.590;2023-07-31T12:13:31;25.55;53.94
70246;SHT30;57637;49.272;8.590;2023-07-31T12:15:59;25.58;53.75
70246;SHT30;57637;49.272;8.590;2023-07-31T12:18:27;25.57;53.43
70246;SHT30;57637;49.272;8.590;2023-07-31T12:20:56;25.86;52.93
70246;SHT30;57637;49.272;8.590;2023-07-31T12:23:22;26.19;53.30
70246;SHT30;57637;49.272;8.590;2023-07-31T12:28:50;26.43;52.92
70246;SHT30;57637;49.272;8.590;2023-07-31T12:31:20;26.93;51.93
70246;SHT30;57637;49.272;8.590;2023-07-31T12:33:47;27.39;50.76
70246;SHT30;57637;49.272;8.590;2023-07-31T12:36:15;27.63;50.78
70246;SHT30;57637;49.272;8.590;2023-07-31T12:38:42;27.81;50.18
70246;SHT30;57637;49.272;8.590;2023-07-31T12:41:08;27.55;49.48
70246;SHT30;57637;49.272;8.590;2023-07-31T12:43:37;27.63;49.11
70246;SHT30;57637;49.272;8.590;2023-07-31T12:46:04;27.58;49.41
70246;SHT30;57637;49.272;8.590;2023-07-31T12:48:30;27.49;49.17
70246;SHT30;57637;49.272;8.590;2023-07-31T12:50:56;27.24;50.18
70246;SHT30;57637;49.272;8.590;2023-07-31T12:53:22;27.03;50.75
70246;SHT30;57637;49.272;8.590;2023-07-31T12:55:47;26.35;51.47
70246;SHT30;57637;49.272;8.590;2023-07-31T12:58:13;26.26;51.58
70246;SHT30;57637;49.272;8.590;2023-07-31T13:00:38;26.26;51.59
70246;SHT30;57637;49.272;8.590;2023-07-31T13:03:03;26.22;52.31
70246;SHT30;57637;49.272;8.590;2023-07-31T13:05:29;25.95;52.45
70246;SHT30;57637;49.272;8.590;2023-07-31T13:07:54;25.91;52.35
70246;SHT30;57637;49.272;8.590;2023-07-31T13:10:20;25.82;53.09
70246;SHT30;57637;49.272;8.590;2023-07-31T13:12:47;25.79;52.86
70246;SHT30;57637;49.272;8.590;2023-07-31T13:15:12;25.58;53.08
70246;SHT30;57637;49.272;8.590;2023-07-31T13:17:37;25.57;53.93
70246;SHT30;57637;49.272;8.590;2023-07-31T13:20:03;25.51;54.67
70246;SHT30;57637;49.272;8.590;2023-07-31T13:22:30;25.31;54.79
70246;SHT30;57637;49.272;8.590;2023-07-31T13:24:55;25.07;54.58
70246;SHT30;57637;49.272;8.590;2023-07-31T13:27:20;24.97;55.02
70246;SHT30;57637;49.272;8.590;2023-07-31T13:29:47;25.14;55.33
70246;SHT30;57637;49.272;8.590;2023-07-31T13:32:21;25.42;54.98
70246;SHT30;57637;49.272;8.590;2023-07-31T13:34:47;25.59;54.27
70246;SHT30;57637;49.272;8.590;2023-07-31T13:37:13;25.71;54.23
70246;SHT30;57637;49.272;8.590;2023-07-31T13:39:42;25.82;53.80
70246;SHT30;57637;49.272;8.590;2023-07-31T13:42:09;25.89;54.03
70246;SHT30;57637;49.272;8.590;2023-07-31T13:44:40;25.88;53.57
70246;SHT30;57637;49.272;8.590;2023-07-31T13:47:07;26.03;53.61
70246;SHT30;57637;49.272;8.590;2023-07-31T13:49:33;26.29;52.55
70246;SHT30;57637;49.272;8.590;2023-07-31T13:51:59;26.35;52.96
70246;SHT30;57637;49.272;8.590;2023-07-31T13:54:25;26.33;52.85
70246;SHT30;57637;49.272;8.590;2023-07-31T13:56:53;26.32;51.79
70246;SHT30;57637;49.272;8.590;2023-07-31T13:59:19;26.28;52.36
70246;SHT30;57637;49.272;8.590;2023-07-31T14:01:45;26.15;52.79
70246;SHT30;57637;49.272;8.590;2023-07-31T14:04:11;26.16;52.25
70246;SHT30;57637;49.272;8.590;2023-07-31T14:06:40;25.84;52.46
70246;SHT30;57637;49.272;8.590;2023-07-31T14:09:05;25.59;53.34
70246;SHT30;57637;49.272;8.590;2023-07-31T14:11:32;25.45;53.63
70246;SHT30;57637;49.272;8.590;2023-07-31T14:13:57;25.34;53.95
70246;SHT30;57637;49.272;8.590;2023-07-31T14:16:24;25.20;54.45
70246;SHT30;57637;49.272;8.590;2023-07-31T14:18:50;25.26;54.56
70246;SHT30;57637;49.272;8.590;2023-07-31T14:21:16;25.27;53.77
70246;SHT30;57637;49.272;8.590;2023-07-31T14:23:41;25.35;54.42
70246;SHT30;57637;49.272;8.590;2023-07-31T14:26:08;25.41;54.52
70246;SHT30;57637;49.272;8.590;2023-07-31T14:28:33;25.45;54.90
70246;SHT30;57637;49.272;8.590;2023-07-31T14:30:59;25.38;55.31
70246;SHT30;57637;49.272;8.590;2023-07-31T14:33:24;25.13;54.59
70246;SHT30;57637;49.272;8.590;2023-07-31T14:35:50;25.14;55.02
70246;SHT30;57637;49.272;8.590;2023-07-31T14:38:15;25.17;55.09
70246;SHT30;57637;49.272;8.590;2023-07-31T14:40:41;25.14;54.83
70246;SHT30;57637;49.272;8.590;2023-07-31T14:43:06;25.04;54.78
70246;SHT30;57637;49.272;8.590;2023-07-31T14:45:41;25.14;54.60
70246;SHT30;57637;49.272;8.590;2023-07-31T14:48:06;25.20;55.11
70246;SHT30;57637;49.272;8.590;2023-07-31T14:50:35;25.20;54.22
70246;SHT30;57637;49.272;8.590;2023-07-31T14:53:16;25.34;54.62
70246;SHT30;57637;49.272;8.590;2023-07-31T14:55:46;25.34;54.06
70246;SHT30;57637;49.272;8.590;2023-07-31T14:58:18;25.54;53.74
70246;SHT30;57637;49.272;8.590;2023-07-31T15:00:48;25.91;53.25
70246;SHT30;57637;49.272;8.590;2023-07-31T15:03:13;26.01;52.80
70246;SHT30;57637;49.272;8.590;2023-07-31T15:05:39;26.08;52.25
70246;SHT30;57637;49.272;8.590;2023-07-31T15:08:08;26.16;51.88
70246;SHT30;57637;49.272;8.590;2023-07-31T15:10:33;26.01;52.76
70246;SHT30;57637;49.272;8.590;2023-07-31T15:12:59;26.15;52.93
70246;SHT30;57637;49.272;8.590;2023-07-31T15:15:26;26.33;52.94
70246;SHT30;57637;49.272;8.590;2023-07-31T15:17:51;26.43;52.24
70246;SHT30;57637;49.272;8.590;2023-07-31T15:20:17;26.39;52.64
70246;SHT30;57637;49.272;8.590;2023-07-31T15:22:42;26.23;52.35
70246;SHT30;57637;49.272;8.590;2023-07-31T15:25:08;26.30;52.74
70246;SHT30;57637;49.272;8.590;2023-07-31T15:27:33;26.33;52.98
70246;SHT30;57637;49.272;8.590;2023-07-31T15:29:59;26.12;52.51
70246;SHT30;57637;49.272;8.590;2023-07-31T15:32:24;25.89;53.32
70246;SHT30;57637;49.272;8.590;2023-07-31T15:34:50;25.79;53.33
70246;SHT30;57637;49.272;8.590;2023-07-31T15:37:15;25.82;53.59
70246;SHT30;57637;49.272;8.590;2023-07-31T15:39:42;25.96;53.87